Ameland Airport Ballum

EHAL · Friesland, 荷兰

罗盘
风向 的 风向 的 风向 到 风向 070° Ameland Airport Ballum 8/26
风: 14 kt, 4 beaufort

14 kt

3 kt
改变
0 1.000 2.000 3.000 4.000 5.000
SCT 1.600 ft
OVC 1.900 ft
METAR EHLW 041155Z AUTO 07014KT 330V130 9999 SCT016 OVC019 02/M01 Q1020 WHT

METAR Ameland Airport Ballum - EHAL

Ameland Airport Ballum是,荷兰中的小机场。 该机场有一条跑道: 8/26. 该领域的国际民航组织标志是EHAL.

这份报告是针对2022年12月4日 12:55, 当地时间在Leeuwarden Air Base进行的。

机场观察

风向为070°,速度为14 kt。 风向在330°和130°之间变化。

可见度为10 km 或者更多。

有疏云,零星散落的云朵在1.600 ft的高度 和 乌云密布在1.900 ft的高度。 破损或更高的上限为1.900 ft。

温度为2 °C,阵风为-5 °C。 露点为-1 °C,相对湿度为81%。 海平面上的气压为1020 hPa (QNH)。

白天

今天,太阳从08:34升起,在16:20降落。 这适用于Ameland Airport Ballum,世界夏令时可能有所不同。 当地时间与世界标准时间之间的时差为+1 小时。 当前,没有夏令时有效。

公司介绍

在这个机场,你可以找到跳伞中心。 这个机场上的公司有Vliegles.nl, Paracentrum Ameland 和 Rondvluchten Ameland。

体会

你可以在这个机场与经验丰富的教练进行双人跳伞。 这些跳伞包括自由落体。 在Ameland Airport Ballum进行跳伞的费用是€ 209。 在这里预订Skydive Ameland

跑道

Id 标题 侧风 逆风 侧风 %
8/26 084°-264° 3 kt 14 kt 24 %

逆风成分最大的方向会被突出显示,并用于横风计算。 这并不一定意味着这个方向在使用。

乌云

1.600 ft SCT 疏云,零星散落的云朵
1.900 ft OVC 乌云密布

温度 & 天气

温度 2 °C
露点 -1 °C
相对湿度 81%
风寒 -5 °C
Kp-index 0 (0-9)

白天

日出
08:32
中午
12:27
日落
16:21 (3:00)

小工具

你想在你的网站上有一个关于Ameland Airport Ballum的当前航空天气(METAR)的小部件吗?

显示HTML代码

我们和第三方通过cookies跟踪您在我们网站上的互联网行为。如果你继续,我们认为你同意我们的饼干政策